Dingwall, United Kingdom
Current Conditions -  °F | °C
As of 1:50 PM on Wednesday 28 Jan 2015 (Local Time) from EGPE Reporting Station
Rain Showers Rain Showers  
Wind Chill: 22°   Ceiling: Unl
Heat Index: 34°   Visibility: 6mi
Dew Point: 32°   Wind: 22mph
Humidity: 93%   Direction: 270°W
Pressure: 29.06"   Gusts: NA
Location:  57.6°N, 4.43°W
Report Text: EGPE 281350Z 27019KT 9999 VCSH FEW004 FEW008CB 01/00 Q0984 RESN
Loading
Personal Weather Stations






























Interactive Weather Map New forecast layout! Learn more

10-Day Weather Forecast

Advertisements
Track Severe Weather on mobile